Time;durP1;ratioP1;P1;durP2;ratioP2;P2;SDS_P1;SDS_P2;PMS_P1;PMS_P2;Temp;Humidity;BMP_temperature;BMP_pressure;BME280_temperature;BME280_humidity;BME280_pressure;Samples;Min_cycle;Max_cycle;Signal;HPM_P1;HPM_P2
2022/01/29 00:01:30;;;;;;;9.40;4.17;;;1.90;99.90;;;;;;4936475;29;20175;-90
2022/01/29 00:03:57;;;;;;;10.47;5.63;;;6.00;99.90;;;;;;4936411;29;20193;-90
2022/01/29 00:06:23;;;;;;;9.43;5.07;;;4.60;99.90;;;;;;4936041;29;20179;-92
2022/01/29 00:08:49;;;;;;;10.13;5.67;;;4.60;99.90;;;;;;4936818;29;20175;-90
2022/01/29 00:11:35;;;;;;;9.60;5.10;;;3.60;99.90;;;;;;4937076;29;20211;-93
2022/01/29 00:14:05;;;;;;;8.23;5.10;;;4.20;99.90;;;;;;4891178;29;20235;-93
2022/01/29 00:16:40;;;;;;;8.83;5.13;;;3.70;99.90;;;;;;4936391;29;20640;-92
2022/01/29 00:19:06;;;;;;;10.30;5.53;;;3.70;99.90;;;;;;4957760;28;20199;-92
2022/01/29 00:21:32;;;;;;;8.83;5.67;;;5.80;99.90;;;;;;5000197;28;20547;-92
2022/01/29 00:24:05;;;;;;;8.53;5.50;;;3.90;99.90;;;;;;5017816;28;20248;-93
2022/01/29 00:26:30;;;;;;;14.97;5.90;;;3.70;99.90;;;;;;5000564;28;20186;-91
2022/01/29 00:28:58;;;;;;;7.80;5.07;;;3.40;99.90;;;;;;4999211;28;20169;-94
2022/01/29 00:31:24;;;;;;;10.53;5.77;;;5.10;99.90;;;;;;4998741;28;20183;-91
2022/01/29 00:33:51;;;;;;;8.20;5.20;;;4.80;99.90;;;;;;4999745;28;20204;-91
2022/01/29 00:36:17;;;;;;;13.97;5.60;;;4.40;99.90;;;;;;4999692;28;20176;-92
2022/01/29 00:38:43;;;;;;;10.13;5.97;;;1.30;99.90;;;;;;5000509;28;20180;-92
2022/01/29 00:41:16;;;;;;;10.53;5.70;;;3.80;99.90;;;;;;4999443;28;20168;-92
2022/01/29 00:43:42;;;;;;;9.53;5.63;;;2.90;99.90;;;;;;4999188;28;20179;-91
2022/01/29 00:46:08;;;;;;;12.03;5.90;;;4.40;99.90;;;;;;4999130;28;20203;-92
2022/01/29 00:48:36;;;;;;;11.73;5.57;;;3.20;99.90;;;;;;4999330;28;20171;-92
2022/01/29 00:51:02;;;;;;;10.03;5.30;;;3.30;99.90;;;;;;4998906;28;20180;-92
2022/01/29 00:53:28;;;;;;;9.07;5.60;;;5.00;99.90;;;;;;4999261;28;20271;-92
2022/01/29 00:55:54;;;;;;;10.03;5.47;;;5.40;99.90;;;;;;4998426;28;20188;-91
2022/01/29 00:58:20;;;;;;;8.27;4.90;;;3.30;99.90;;;;;;4998213;28;20672;-92
2022/01/29 01:00:46;;;;;;;9.57;5.70;;;4.30;99.90;;;;;;4998880;28;20168;-92
2022/01/29 01:03:12;;;;;;;11.23;5.73;;;5.30;99.90;;;;;;4998722;28;20176;-91
2022/01/29 01:05:38;;;;;;;10.63;4.90;;;4.80;99.90;;;;;;4999326;28;20532;-92
2022/01/29 01:08:04;;;;;;;8.67;5.40;;;4.50;99.90;;;;;;4998764;28;20604;-92
2022/01/29 01:10:30;;;;;;;9.20;5.67;;;3.70;99.90;;;;;;4999623;28;20625;-92
2022/01/29 01:12:56;;;;;;;10.33;6.47;;;4.30;99.90;;;;;;4999201;28;20291;-92
2022/01/29 01:15:22;;;;;;;10.70;6.20;;;6.10;99.90;;;;;;4999191;28;20611;-92
2022/01/29 01:17:48;;;;;;;10.57;6.10;;;5.80;99.90;;;;;;4999771;28;20248;-91
2022/01/29 01:20:14;;;;;;;9.93;5.87;;;3.80;99.90;;;;;;4999257;28;20270;-89
2022/01/29 01:22:40;;;;;;;9.70;5.90;;;3.70;99.90;;;;;;4998445;28;20182;-92
2022/01/29 01:25:07;;;;;;;11.17;6.00;;;5.30;99.90;;;;;;4998177;28;20168;-90
2022/01/29 01:27:33;;;;;;;9.83;5.97;;;3.60;99.90;;;;;;4998018;28;20226;-93
2022/01/29 01:29:59;;;;;;;13.27;7.50;;;3.40;99.90;;;;;;4998707;28;20172;-95
2022/01/29 01:32:25;;;;;;;11.63;7.33;;;3.40;99.90;;;;;;4998482;28;20208;-91
2022/01/29 01:34:55;;;;;;;11.60;7.00;;;4.90;99.90;;;;;;4998135;28;20173;-92
2022/01/29 01:37:35;;;;;;;11.40;7.47;;;4.60;99.90;;;;;;4998562;28;20172;-91
2022/01/29 01:40:02;;;;;;;9.87;6.77;;;4.70;99.90;;;;;;4997574;28;20195;-93
2022/01/29 01:42:28;;;;;;;13.43;7.87;;;3.80;99.90;;;;;;4998590;28;20180;-91
2022/01/29 01:44:55;;;;;;;12.00;7.37;;;4.60;99.90;;;;;;4999837;28;20586;-91
2022/01/29 01:47:21;;;;;;;9.97;6.43;;;4.70;99.90;;;;;;5001068;28;20169;-89
2022/01/29 01:49:47;;;;;;;10.43;6.70;;;4.40;99.90;;;;;;5002067;28;20184;-90
2022/01/29 01:52:14;;;;;;;12.30;7.47;;;4.60;99.90;;;;;;5000282;28;20180;-92
2022/01/29 01:54:42;;;;;;;11.83;7.60;;;4.30;99.90;;;;;;5016572;28;20180;-92
2022/01/29 01:57:08;;;;;;;11.57;7.83;;;2.60;99.90;;;;;;5000979;28;20172;-89
2022/01/29 01:59:34;;;;;;;12.23;7.47;;;2.70;99.90;;;;;;5020812;28;20176;-92
2022/01/29 02:02:01;;;;;;;11.93;8.10;;;2.70;99.90;;;;;;5037636;28;20163;-91
2022/01/29 02:04:27;;;;;;;11.33;7.83;;;2.90;99.90;;;;;;5020207;28;20180;-91
2022/01/29 02:06:54;;;;;;;10.67;7.50;;;3.30;99.90;;;;;;5019591;28;20180;-90
2022/01/29 02:09:22;;;;;;;12.03;8.10;;;3.20;99.90;;;;;;5020811;28;20164;-93
2022/01/29 02:12:17;;;;;;;12.70;7.50;;;1.80;99.90;;;;;;5021604;28;20192;-92
2022/01/29 02:15:12;;;;;;;11.67;7.33;;;3.60;99.90;;;;;;5018796;28;20192;-91
2022/01/29 02:17:38;;;;;;;11.23;7.00;;;3.60;99.90;;;;;;5004230;28;20251;-92
2022/01/29 02:23:26;;;;;;;10.67;7.17;;;3.90;99.90;;;;;;5024684;28;20322;-92
2022/01/29 02:25:52;;;;;;;12.93;7.87;;;4.00;99.90;;;;;;4997652;28;20223;-92
2022/01/29 02:28:21;;;;;;;11.23;6.97;;;6.50;99.90;;;;;;4997837;28;20199;-92
2022/01/29 02:30:50;;;;;;;10.53;7.23;;;4.00;99.90;;;;;;4997013;28;20169;-92
2022/01/29 02:33:17;;;;;;;12.43;7.40;;;4.30;99.90;;;;;;4996609;28;20208;-92
2022/01/29 02:35:49;;;;;;;11.37;7.60;;;4.20;99.90;;;;;;4996246;28;20234;-92
2022/01/29 02:38:20;;;;;;;10.97;7.10;;;6.50;99.90;;;;;;5013937;28;20168;-92
2022/01/29 02:40:51;;;;;;;12.20;7.87;;;5.40;99.90;;;;;;4996487;28;20636;-92
2022/01/29 02:43:27;;;;;;;12.17;7.57;;;5.80;99.90;;;;;;4995924;28;20187;-92
2022/01/29 02:45:54;;;;;;;10.90;7.73;;;2.10;99.90;;;;;;4996201;28;20823;-91
2022/01/29 02:48:22;;;;;;;11.57;7.37;;;5.90;99.90;;;;;;4996262;28;20172;-92
2022/01/29 02:50:48;;;;;;;10.47;6.93;;;5.70;99.90;;;;;;4996337;28;20610;-92
2022/01/29 02:53:19;;;;;;;9.60;6.70;;;4.30;99.90;;;;;;4996983;28;20200;-91
2022/01/29 02:55:45;;;;;;;13.43;7.80;;;5.80;99.90;;;;;;4993380;28;20176;-91
2022/01/29 02:58:11;;;;;;;14.33;7.73;;;4.70;99.90;;;;;;4992554;28;20179;-91
2022/01/29 03:00:39;;;;;;;9.60;7.10;;;4.30;99.90;;;;;;4997090;28;20176;-91
2022/01/29 03:03:05;;;;;;;13.67;7.43;;;5.20;99.90;;;;;;4998545;28;20605;-91
2022/01/29 03:05:31;;;;;;;12.73;7.20;;;4.30;99.90;;;;;;4997509;28;20183;-90
2022/01/29 03:07:57;;;;;;;10.23;7.23;;;4.80;99.90;;;;;;4996823;28;20622;-91
2022/01/29 03:10:25;;;;;;;11.23;7.43;;;4.50;99.90;;;;;;4995853;28;20176;-92
2022/01/29 03:12:52;;;;;;;15.47;7.70;;;4.00;99.90;;;;;;4995471;28;20212;-92
2022/01/29 03:15:17;;;;;;;11.70;7.43;;;3.90;99.90;;;;;;5012839;28;20169;-91
2022/01/29 03:17:43;;;;;;;14.83;7.40;;;5.20;99.90;;;;;;4996329;28;20176;-92
2022/01/29 03:20:10;;;;;;;11.27;6.73;;;5.90;99.90;;;;;;5016510;28;20161;-90
2022/01/29 03:22:37;;;;;;;13.63;7.80;;;4.00;99.90;;;;;;4999064;28;20184;-93
2022/01/29 03:25:05;;;;;;;11.70;7.17;;;3.90;99.90;;;;;;4998466;28;20196;-93
2022/01/29 03:27:30;;;;;;;11.30;6.93;;;3.60;99.90;;;;;;4998965;28;20303;-91
2022/01/29 03:29:56;;;;;;;13.30;7.37;;;3.50;99.90;;;;;;4999890;28;20212;-92
2022/01/29 03:32:22;;;;;;;10.53;7.27;;;4.60;99.90;;;;;;4999229;28;20291;-91
2022/01/29 03:34:48;;;;;;;10.93;7.43;;;1.50;99.90;;;;;;5015125;28;20219;-91
2022/01/29 03:37:14;;;;;;;14.50;7.90;;;3.00;99.90;;;;;;4999220;28;20179;-92
2022/01/29 03:39:46;;;;;;;11.47;7.80;;;3.00;99.90;;;;;;5015991;28;20176;-91
2022/01/29 03:42:14;;;;;;;10.17;7.63;;;3.60;99.90;;;;;;5000395;28;20171;-91
2022/01/29 03:44:49;;;;;;;10.20;7.73;;;1.50;99.90;;;;;;4999155;28;20181;-91
2022/01/29 03:47:14;;;;;;;9.67;7.73;;;1.20;99.90;;;;;;5000285;28;20191;-92
2022/01/29 03:49:40;;;;;;;10.80;8.20;;;2.80;99.90;;;;;;5000172;28;20180;-92
2022/01/29 03:52:07;;;;;;;12.37;7.83;;;3.50;99.90;;;;;;4999674;28;20203;-93
2022/01/29 03:54:33;;;;;;;12.70;8.17;;;2.60;99.90;;;;;;4999756;28;20219;-91
2022/01/29 03:57:00;;;;;;;11.60;7.60;;;2.70;99.90;;;;;;4999933;28;20197;-92
2022/01/29 03:59:26;;;;;;;10.03;7.87;;;3.20;99.90;;;;;;4999383;28;20255;-92
2022/01/29 04:02:00;;;;;;;11.47;7.63;;;2.70;99.90;;;;;;4999139;28;20263;-92
2022/01/29 04:04:25;;;;;;;13.10;7.30;;;2.60;99.90;;;;;;4999916;28;20629;-92
2022/01/29 04:06:51;;;;;;;12.17;7.70;;;5.00;99.90;;;;;;4999817;28;20175;-93
2022/01/29 04:09:18;;;;;;;13.10;8.33;;;2.70;99.90;;;;;;4999288;28;20323;-91
2022/01/29 04:11:45;;;;;;;13.17;7.93;;;2.00;99.90;;;;;;4998846;28;20601;-90
2022/01/29 04:14:19;;;;;;;10.97;7.77;;;4.90;99.90;;;;;;4998810;28;20196;-93
2022/01/29 04:16:45;;;;;;;11.37;7.00;;;5.00;99.90;;;;;;4998507;28;20168;-91
2022/01/29 04:19:13;;;;;;;12.77;8.03;;;4.40;99.90;;;;;;4998659;28;20177;-90
2022/01/29 04:21:41;;;;;;;12.40;7.77;;;2.70;99.90;;;;;;5014918;28;20226;-91
2022/01/29 04:24:07;;;;;;;11.07;8.47;;;2.50;99.90;;;;;;4979475;28;20280;-89
2022/01/29 04:26:35;;;;;;;11.67;8.33;;;4.00;99.90;;;;;;4978400;28;20193;-91
2022/01/29 04:29:07;;;;;;;11.50;7.30;;;2.50;99.90;;;;;;4978648;28;20205;-91
2022/01/29 04:31:42;;;;;;;11.27;7.73;;;2.50;99.90;;;;;;4978654;28;20180;-91
2022/01/29 04:34:08;;;;;;;12.57;7.90;;;2.60;99.90;;;;;;4978317;28;20223;-91
2022/01/29 04:36:36;;;;;;;10.53;8.17;;;4.70;99.90;;;;;;4978081;28;20178;-93
2022/01/29 04:39:03;;;;;;;11.33;7.63;;;2.70;99.90;;;;;;4978355;28;20169;-91
2022/01/29 04:41:28;;;;;;;9.77;7.43;;;2.90;99.90;;;;;;4978430;28;20205;-92
2022/01/29 04:43:54;;;;;;;13.37;8.00;;;2.80;99.90;;;;;;4978141;28;20802;-92
2022/01/29 04:46:21;;;;;;;14.17;8.20;;;2.90;99.90;;;;;;4978044;28;20180;-92
2022/01/29 04:48:47;;;;;;;10.83;7.73;;;2.70;99.90;;;;;;4978618;28;20696;-91
2022/01/29 04:51:13;;;;;;;12.20;8.13;;;4.70;99.90;;;;;;4978046;28;20268;-91
2022/01/29 04:53:40;;;;;;;11.33;7.63;;;2.40;99.90;;;;;;4978388;28;20657;-92
2022/01/29 04:56:06;;;;;;;13.50;8.37;;;2.50;99.90;;;;;;4977718;28;20173;-92
2022/01/29 04:58:32;;;;;;;12.60;7.33;;;2.60;99.90;;;;;;4977916;28;20173;-91
2022/01/29 05:00:58;;;;;;;13.50;7.93;;;2.40;99.90;;;;;;4995275;28;20172;-93
2022/01/29 05:03:24;;;;;;;12.20;7.93;;;2.50;99.90;;;;;;4977898;28;20187;-94
2022/01/29 05:05:50;;;;;;;9.60;7.07;;;4.20;99.90;;;;;;4977633;28;20260;-91
2022/01/29 05:08:19;;;;;;;10.30;7.37;;;3.70;99.90;;;;;;4977344;28;20176;-91
2022/01/29 05:10:45;;;;;;;12.20;7.57;;;2.70;99.90;;;;;;4978179;28;20268;-91
2022/01/29 05:13:14;;;;;;;12.23;7.70;;;3.30;99.90;;;;;;4977805;28;20742;-94
2022/01/29 05:15:46;;;;;;;9.93;7.60;;;4.50;99.90;;;;;;4977483;28;20177;-91
2022/01/29 05:29:10;;;;;;;11.47;7.50;;;2.80;99.90;;;;;;4994845;28;20180;-91
2022/01/29 05:31:39;;;;;;;11.13;7.87;;;3.80;99.90;;;;;;4977140;28;20165;-91
2022/01/29 05:34:05;;;;;;;11.33;7.90;;;4.10;99.90;;;;;;4977445;28;20216;-93
2022/01/29 05:36:31;;;;;;;8.97;7.70;;;0.70;99.90;;;;;;4977341;28;20208;-92
2022/01/29 05:38:58;;;;;;;11.17;7.80;;;4.70;99.90;;;;;;4977815;28;20181;-90
2022/01/29 05:41:24;;;;;;;12.00;8.00;;;3.40;99.90;;;;;;4976747;28;20177;-91
2022/01/29 05:47:19;;;;;;;10.93;8.40;;;2.40;99.90;;;;;;4994408;28;20178;-91
2022/01/29 05:50:16;;;;;;;9.87;7.70;;;3.30;99.90;;;;;;4976760;28;20173;-90
2022/01/29 05:52:43;;;;;;;9.77;7.57;;;2.40;99.90;;;;;;4977072;28;20205;-92
2022/01/29 05:55:09;;;;;;;11.23;7.80;;;3.90;99.90;;;;;;4976773;28;20289;-93
2022/01/29 05:57:36;;;;;;;10.50;7.70;;;4.60;99.90;;;;;;4976940;28;20231;-92
2022/01/29 06:00:05;;;;;;;10.77;8.10;;;3.10;99.90;;;;;;4977122;28;20176;-91
2022/01/29 06:02:31;;;;;;;9.97;7.40;;;2.50;99.90;;;;;;4978656;28;20177;-92
2022/01/29 06:05:04;;;;;;;10.60;7.63;;;2.40;99.90;;;;;;4977399;28;20172;-92
2022/01/29 06:07:30;;;;;;;11.30;7.23;;;2.40;99.90;;;;;;4978004;28;20172;-93
2022/01/29 06:10:01;;;;;;;11.93;8.07;;;4.50;99.90;;;;;;4977462;28;20177;-93
2022/01/29 06:12:27;;;;;;;10.80;8.10;;;2.30;99.90;;;;;;4977813;28;20201;-93
2022/01/29 06:14:53;;;;;;;9.73;7.80;;;2.20;99.90;;;;;;4976663;28;20187;-91
2022/01/29 06:17:19;;;;;;;10.73;7.50;;;2.80;99.90;;;;;;4994238;28;20231;-91
2022/01/29 06:19:48;;;;;;;12.33;8.37;;;0.80;99.90;;;;;;4976852;28;20177;-91
2022/01/29 06:22:15;;;;;;;11.07;7.83;;;4.60;99.90;;;;;;4976664;28;20539;-91
2022/01/29 06:24:41;;;;;;;13.47;8.10;;;4.40;99.90;;;;;;4976315;28;20177;-91
2022/01/29 06:27:08;;;;;;;10.00;7.73;;;4.70;99.90;;;;;;4976496;28;20180;-91
2022/01/29 06:29:34;;;;;;;12.13;7.73;;;3.30;99.90;;;;;;4976570;28;20223;-92
2022/01/29 06:32:00;;;;;;;12.27;7.93;;;2.40;99.90;;;;;;4976630;28;20169;-91
2022/01/29 06:34:26;;;;;;;9.50;7.37;;;4.00;99.90;;;;;;4976285;28;20219;-91
2022/01/29 06:36:58;;;;;;;12.30;8.00;;;4.40;99.90;;;;;;4976649;28;20173;-92
2022/01/29 06:39:24;;;;;;;12.23;8.00;;;4.20;99.90;;;;;;4976924;28;20211;-93
2022/01/29 06:41:50;;;;;;;12.60;8.57;;;2.20;99.90;;;;;;4976468;28;20196;-91
2022/01/29 06:44:15;;;;;;;11.30;8.00;;;3.70;99.90;;;;;;4976556;28;20181;-91
2022/01/29 06:46:41;;;;;;;11.57;7.90;;;2.10;99.90;;;;;;4976659;28;20197;-92
2022/01/29 06:49:11;;;;;;;10.57;7.77;;;2.10;99.90;;;;;;4977716;28;20168;-90
2022/01/29 06:51:37;;;;;;;12.07;8.07;;;3.40;99.90;;;;;;4977858;28;20173;-91
2022/01/29 06:54:11;;;;;;;10.40;8.13;;;3.80;99.90;;;;;;4981075;28;20219;-91
2022/01/29 06:56:37;;;;;;;11.00;8.40;;;2.20;99.90;;;;;;4980409;28;20219;-92
2022/01/29 06:59:03;;;;;;;10.97;8.63;;;4.50;99.90;;;;;;4980575;28;20519;-92
2022/01/29 07:01:29;;;;;;;15.53;9.27;;;3.80;99.90;;;;;;4980707;28;20672;-92
2022/01/29 07:03:55;;;;;;;13.33;8.03;;;3.80;99.90;;;;;;4979663;28;20188;-91
2022/01/29 07:06:21;;;;;;;12.13;8.10;;;2.00;99.90;;;;;;4979693;28;20177;-91
2022/01/29 07:08:46;;;;;;;10.67;8.20;;;4.00;99.90;;;;;;4980306;28;20176;-94
2022/01/29 07:11:21;;;;;;;10.30;8.40;;;2.80;99.90;;;;;;4981582;28;20176;-91
2022/01/29 07:13:47;;;;;;;9.77;7.87;;;2.10;99.90;;;;;;4981750;28;20223;-93
2022/01/29 07:16:15;;;;;;;11.73;8.33;;;2.40;99.90;;;;;;4980181;28;20208;-91
2022/01/29 07:18:41;;;;;;;12.50;8.00;;;4.10;99.90;;;;;;4979746;28;20177;-91
2022/01/29 07:21:16;;;;;;;11.23;8.23;;;3.40;99.90;;;;;;4980654;28;20227;-92
2022/01/29 07:23:41;;;;;;;11.50;8.57;;;3.20;99.90;;;;;;4980951;28;20169;-91
2022/01/29 07:26:07;;;;;;;13.30;8.33;;;2.00;99.90;;;;;;4997353;28;20184;-91
2022/01/29 07:28:42;;;;;;;10.47;7.77;;;3.40;99.90;;;;;;4998316;28;20169;-90
2022/01/29 07:31:08;;;;;;;14.50;9.33;;;2.00;99.90;;;;;;4997295;28;20175;-91
2022/01/29 07:33:34;;;;;;;11.93;8.37;;;1.10;99.90;;;;;;5000355;28;20544;-91
2022/01/29 07:36:01;;;;;;;12.27;8.43;;;2.00;99.90;;;;;;5001089;28;20169;-91
2022/01/29 07:38:27;;;;;;;12.03;8.40;;;2.20;99.90;;;;;;4999377;28;20208;-92
2022/01/29 07:40:53;;;;;;;10.93;8.00;;;2.10;99.90;;;;;;5000626;28;20188;-91
2022/01/29 07:43:19;;;;;;;10.10;7.90;;;4.20;99.90;;;;;;4999814;28;20207;-91
2022/01/29 07:45:46;;;;;;;11.13;7.70;;;2.20;99.90;;;;;;5000136;28;20195;-91
2022/01/29 07:48:12;;;;;;;11.93;7.70;;;3.90;99.90;;;;;;4999829;28;20164;-91
2022/01/29 07:50:38;;;;;;;11.80;7.77;;;2.30;99.90;;;;;;4999134;28;20630;-93
2022/01/29 07:53:04;;;;;;;10.73;7.80;;;4.20;99.90;;;;;;4998930;28;20662;-90
2022/01/29 07:55:31;;;;;;;9.67;7.63;;;2.40;99.90;;;;;;4999035;28;20255;-92
2022/01/29 07:58:01;;;;;;;11.07;8.20;;;2.30;99.90;;;;;;4999376;28;20179;-90
2022/01/29 08:00:27;;;;;;;11.03;7.83;;;3.20;99.90;;;;;;4999339;28;20183;-92
2022/01/29 08:02:53;;;;;;;10.30;7.93;;;2.30;99.90;;;;;;4998803;28;20211;-91
2022/01/29 08:05:19;;;;;;;9.30;7.73;;;3.10;99.90;;;;;;4998464;28;20177;-93
2022/01/29 08:07:44;;;;;;;11.80;8.13;;;2.60;99.90;;;;;;5016543;28;20177;-91
2022/01/29 08:10:10;;;;;;;11.40;8.00;;;2.90;99.90;;;;;;5017217;28;20259;-92
2022/01/29 08:12:36;;;;;;;9.10;6.93;;;4.40;99.90;;;;;;4998734;28;20682;-91
2022/01/29 08:15:04;;;;;;;9.60;7.43;;;3.00;99.90;;;;;;4998668;28;20706;-93
2022/01/29 08:17:30;;;;;;;10.40;6.93;;;2.60;99.90;;;;;;5016725;28;20163;-92
2022/01/29 08:19:57;;;;;;;13.53;7.23;;;4.60;99.90;;;;;;5022656;28;20228;-91
2022/01/29 08:22:23;;;;;;;9.80;7.37;;;4.70;99.90;;;;;;5022187;28;20171;-91
2022/01/29 08:24:49;;;;;;;9.03;7.40;;;3.60;99.90;;;;;;5021690;28;20192;-91
2022/01/29 08:27:15;;;;;;;8.73;6.77;;;4.30;99.90;;;;;;5022375;28;20165;-90
2022/01/29 08:30:13;;;;;;;10.50;7.20;;;4.30;99.90;;;;;;5021802;28;20203;-90
2022/01/29 08:32:42;;;;;;;10.10;7.37;;;2.60;99.90;;;;;;5040195;28;20211;-91
2022/01/29 08:38:30;;;;;;;9.33;6.87;;;2.70;99.90;;;;;;5025072;28;20295;-90
2022/01/29 08:40:58;;;;;;;9.50;7.07;;;4.10;99.90;;;;;;5007051;28;20180;-93
2022/01/29 08:43:24;;;;;;;9.17;6.50;;;3.30;99.90;;;;;;5002191;28;20606;-93
2022/01/29 08:45:56;;;;;;;10.33;6.30;;;1.80;99.90;;;;;;4998312;28;20204;-90
2022/01/29 08:48:22;;;;;;;7.87;6.10;;;2.60;99.90;;;;;;4998414;28;20177;-91
2022/01/29 08:50:49;;;;;;;8.57;6.43;;;2.50;99.90;;;;;;4997718;28;20235;-93
2022/01/29 08:53:16;;;;;;;9.77;6.07;;;2.60;99.90;;;;;;4997726;28;20667;-91
2022/01/29 08:55:41;;;;;;;9.03;5.93;;;3.80;99.90;;;;;;4997242;28;20172;-91
2022/01/29 08:58:08;;;;;;;9.23;6.47;;;4.00;99.90;;;;;;5014841;28;20232;-92
2022/01/29 09:00:36;;;;;;;8.27;5.73;;;4.30;99.90;;;;;;4997344;28;20180;-91
2022/01/29 09:03:02;;;;;;;7.87;5.73;;;2.80;99.90;;;;;;4997753;28;20177;-91
2022/01/29 09:05:27;;;;;;;8.27;5.73;;;3.50;99.90;;;;;;4997174;28;20644;-90
2022/01/29 09:07:55;;;;;;;7.23;5.90;;;4.20;99.90;;;;;;4996917;28;20172;-90
2022/01/29 09:10:21;;;;;;;10.57;6.47;;;4.00;99.90;;;;;;4997440;28;20168;-90
2022/01/29 09:12:53;;;;;;;9.77;6.33;;;4.00;99.90;;;;;;4996893;28;20200;-91
2022/01/29 09:15:19;;;;;;;10.23;5.93;;;2.80;99.90;;;;;;4996984;28;20315;-91
2022/01/29 09:17:45;;;;;;;8.03;5.93;;;2.80;99.90;;;;;;4996792;28;20264;-90
2022/01/29 09:20:11;;;;;;;7.87;5.77;;;4.50;99.90;;;;;;4996971;28;20175;-92
2022/01/29 09:22:38;;;;;;;7.10;4.93;;;5.00;99.90;;;;;;4996925;28;20211;-91
2022/01/29 09:25:06;;;;;;;8.80;5.47;;;2.90;99.90;;;;;;4997001;28;20191;-92
2022/01/29 09:27:40;;;;;;;7.17;5.17;;;2.90;99.90;;;;;;4996916;28;20196;-91
2022/01/29 09:30:08;;;;;;;9.20;6.00;;;4.30;99.90;;;;;;4996893;28;20775;-90
2022/01/29 09:32:33;;;;;;;6.63;5.10;;;3.00;99.90;;;;;;4996667;28;20204;-91
2022/01/29 09:35:02;;;;;;;8.43;5.23;;;3.00;99.90;;;;;;4996410;28;20179;-90
2022/01/29 09:37:54;;;;;;;7.63;5.30;;;3.00;99.90;;;;;;4997375;28;20303;-94
2022/01/29 09:40:20;;;;;;;7.33;5.20;;;3.00;99.90;;;;;;4957732;28;20209;-92
2022/01/29 09:43:09;;;;;;;8.77;5.67;;;3.10;99.90;;;;;;4973706;28;20272;-94
2022/01/29 09:45:35;;;;;;;7.90;5.30;;;3.10;99.90;;;;;;4957669;28;20178;-93
2022/01/29 09:48:10;;;;;;;6.33;5.40;;;3.20;99.90;;;;;;4936300;29;20650;-95
2022/01/29 09:50:38;;;;;;;7.77;5.10;;;5.30;99.90;;;;;;4920052;29;20635;-93
2022/01/29 09:53:25;;;;;;;7.17;5.03;;;5.80;99.90;;;;;;4919381;29;20211;-93
2022/01/29 09:55:51;;;;;;;7.90;5.27;;;3.10;99.90;;;;;;4919030;29;20191;-92
2022/01/29 09:58:18;;;;;;;7.43;4.93;;;5.50;99.90;;;;;;4939352;28;20175;-92
2022/01/29 10:00:44;;;;;;;5.83;4.50;;;4.60;99.90;;;;;;4927363;28;20282;-92
2022/01/29 10:03:10;;;;;;;6.73;4.90;;;3.40;99.90;;;;;;4942693;28;20235;-94
2022/01/29 10:05:38;;;;;;;6.53;4.73;;;3.30;99.90;;;;;;4984454;23;20301;-56
2022/01/29 10:08:04;;;;;;;10.87;8.63;;;3.30;99.90;;;;;;5031251;28;20172;-59
2022/01/29 10:10:46;;;;;;;6.53;4.57;;;3.40;99.90;;;;;;5031802;28;20608;-59
2022/01/29 10:13:29;;;;;;;15.43;9.73;;;3.40;99.90;;;;;;5031327;28;20183;-61
2022/01/29 10:16:10;;;;;;;7.83;5.27;;;3.40;99.90;;;;;;5013890;28;20641;-59
2022/01/29 10:18:37;;;;;;;6.20;4.90;;;3.50;99.90;;;;;;5031301;28;20187;-59
2022/01/29 10:21:15;;;;;;;7.40;4.93;;;3.50;99.90;;;;;;5031722;28;20175;-56
2022/01/29 10:23:42;;;;;;;6.63;4.90;;;3.60;99.90;;;;;;5031421;28;20671;-55
2022/01/29 10:26:10;;;;;;;6.97;4.80;;;3.60;99.90;;;;;;5030747;28;20245;-59
2022/01/29 10:28:37;;;;;;;6.77;4.67;;;3.60;99.90;;;;;;5031527;28;20199;-58
2022/01/29 10:31:07;;;;;;;6.47;4.70;;;3.60;99.90;;;;;;5031246;28;20169;-58
2022/01/29 10:33:42;;;;;;;7.43;4.67;;;3.60;99.90;;;;;;5031576;28;20269;-60
2022/01/29 10:36:14;;;;;;;7.33;4.70;;;3.50;99.90;;;;;;5031416;28;20217;-60
2022/01/29 10:38:40;;;;;;;7.97;4.57;;;3.50;99.90;;;;;;5032041;28;20279;-58
2022/01/29 10:41:24;;;;;;;6.50;4.80;;;3.60;99.90;;;;;;5031783;28;20254;-57
2022/01/29 10:44:12;;;;;;;5.47;4.30;;;3.60;99.90;;;;;;5031435;28;20645;-57
2022/01/29 10:46:41;;;;;;;5.00;4.50;;;3.60;99.90;;;;;;5030654;28;20168;-59
2022/01/29 10:49:07;;;;;;;6.13;4.70;;;3.60;99.90;;;;;;5031372;28;20673;-56
2022/01/29 10:51:34;;;;;;;7.30;4.80;;;3.60;99.90;;;;;;5031549;28;20250;-56
2022/01/29 10:54:17;;;;;;;7.17;4.50;;;3.60;99.90;;;;;;5030773;28;20564;-58
2022/01/29 10:56:57;;;;;;;6.00;4.20;;;3.50;99.90;;;;;;5031125;28;20247;-58
2022/01/29 10:59:24;;;;;;;6.13;4.60;;;3.50;99.90;;;;;;5030943;28;20196;-54
2022/01/29 11:01:51;;;;;;;7.67;4.70;;;3.60;99.90;;;;;;5031388;28;20202;-57
2022/01/29 11:04:17;;;;;;;5.47;4.53;;;3.80;99.90;;;;;;5030816;28;20164;-54
2022/01/29 11:06:45;;;;;;;5.33;4.10;;;3.90;99.90;;;;;;5030883;28;20183;-54
2022/01/29 11:09:12;;;;;;;5.63;4.23;;;3.70;99.90;;;;;;5030614;28;20565;-57
2022/01/29 11:11:40;;;;;;;6.60;4.20;;;3.80;99.90;;;;;;5031323;28;20186;-58
2022/01/29 11:14:07;;;;;;;7.73;4.57;;;3.90;99.90;;;;;;5031067;28;20207;-56
2022/01/29 11:16:33;;;;;;;7.10;4.53;;;3.90;99.90;;;;;;5030471;28;20183;-58
2022/01/29 11:18:59;;;;;;;8.93;4.60;;;3.80;99.90;;;;;;5031043;28;20184;-59
2022/01/29 11:21:26;;;;;;;5.43;4.30;;;3.90;99.90;;;;;;5030447;28;20646;-59
2022/01/29 11:23:53;;;;;;;6.23;4.27;;;4.00;99.90;;;;;;5031107;28;20302;-60
2022/01/29 11:26:19;;;;;;;5.80;4.20;;;3.90;99.90;;;;;;5030329;28;20172;-60
2022/01/29 11:28:45;;;;;;;7.43;4.67;;;4.00;99.90;;;;;;5028392;28;20208;-61
2022/01/29 11:31:11;;;;;;;6.33;4.00;;;4.10;99.90;;;;;;5030357;28;20265;-58
2022/01/29 11:33:58;;;;;;;7.27;4.13;;;4.20;99.90;;;;;;5030429;28;20661;-61
2022/01/29 11:36:48;;;;;;;5.60;3.63;;;4.20;99.90;;;;;;5030598;28;20179;-61
2022/01/29 11:39:33;;;;;;;5.70;3.70;;;4.10;99.90;;;;;;5031988;28;20224;-59
2022/01/29 11:42:29;;;;;;;5.60;3.77;;;4.00;99.90;;;;;;5033532;28;20652;-60
2022/01/29 11:44:54;;;;;;;7.27;3.73;;;4.00;99.90;;;;;;5025378;28;20241;-59
2022/01/29 11:47:24;;;;;;;5.17;3.43;;;4.00;99.90;;;;;;5034045;28;20176;-59
2022/01/29 11:50:18;;;;;;;6.43;3.80;;;4.00;99.90;;;;;;5033753;28;20287;-61
2022/01/29 11:52:59;;;;;;;5.50;3.40;;;3.90;99.90;;;;;;5034159;28;20249;-61
2022/01/29 11:55:41;;;;;;;5.23;3.50;;;4.00;99.90;;;;;;5033682;28;20660;-59
2022/01/29 11:58:26;;;;;;;4.20;3.30;;;4.00;99.90;;;;;;5034013;28;20641;-59
2022/01/29 12:00:59;;;;;;;5.53;3.60;;;4.00;99.90;;;;;;5035172;28;20198;-60
2022/01/29 12:06:05;;;;;;;4.30;3.67;;;4.10;99.90;;;;;;5033420;28;20310;-61
2022/01/29 12:08:37;;;;;;;5.33;4.10;;;4.10;99.90;;;;;;5033970;28;20172;-61
2022/01/29 12:11:11;;;;;;;6.63;4.33;;;4.20;99.90;;;;;;5033790;28;20260;-61
2022/01/29 12:13:36;;;;;;;5.23;3.70;;;4.10;99.90;;;;;;5033970;28;20569;-57
2022/01/29 12:16:02;;;;;;;5.63;4.20;;;4.20;99.90;;;;;;5033806;28;20179;-59
2022/01/29 12:18:32;;;;;;;4.87;3.77;;;4.30;99.90;;;;;;5033509;28;20168;-58
2022/01/29 12:20:58;;;;;;;4.83;4.00;;;4.40;99.90;;;;;;5033906;28;20175;-62
2022/01/29 12:23:24;;;;;;;6.63;4.10;;;4.30;99.90;;;;;;5033516;28;20541;-61
2022/01/29 12:25:55;;;;;;;5.97;3.97;;;4.20;99.90;;;;;;5033531;28;20168;-61
2022/01/29 12:28:21;;;;;;;5.27;3.90;;;4.20;99.90;;;;;;5032099;28;20179;-61
2022/01/29 12:30:47;;;;;;;5.80;4.17;;;4.20;99.90;;;;;;5033915;28;20172;-54
2022/01/29 12:33:15;;;;;;;5.37;4.20;;;4.20;99.90;;;;;;5033330;28;20576;-57
2022/01/29 12:35:43;;;;;;;4.70;3.80;;;4.20;99.90;;;;;;5033376;28;20648;-60
2022/01/29 12:38:14;;;;;;;4.80;3.83;;;4.20;99.90;;;;;;5033593;28;20254;-59
2022/01/29 12:40:50;;;;;;;7.17;4.87;;;4.20;99.90;;;;;;5033257;28;20247;-57
2022/01/29 12:43:28;;;;;;;5.73;4.73;;;3.40;99.90;;;;;;5033466;28;20194;-56
2022/01/29 12:45:54;;;;;;;5.17;4.57;;;4.10;99.90;;;;;;5032835;28;20202;-59
2022/01/29 12:48:21;;;;;;;7.47;4.90;;;3.90;99.90;;;;;;5033321;28;20178;-59
2022/01/29 12:50:46;;;;;;;7.17;4.80;;;3.90;99.90;;;;;;5032719;28;20218;-59
2022/01/29 12:53:18;;;;;;;5.93;4.47;;;3.90;99.90;;;;;;5033275;28;20610;-59
2022/01/29 12:55:57;;;;;;;6.30;4.97;;;4.00;99.90;;;;;;5032714;28;20168;-58
2022/01/29 12:58:42;;;;;;;6.13;4.67;;;4.00;99.90;;;;;;5033062;28;20206;-59
2022/01/29 13:01:11;;;;;;;6.77;5.00;;;4.20;99.90;;;;;;5032874;28;20186;-61
2022/01/29 13:03:38;;;;;;;6.57;4.63;;;4.10;99.90;;;;;;5033087;28;20171;-60
2022/01/29 13:06:12;;;;;;;7.00;5.20;;;4.10;99.90;;;;;;5032505;28;20191;-61
2022/01/29 13:08:38;;;;;;;7.13;4.97;;;4.20;99.90;;;;;;5032797;28;20233;-57
2022/01/29 13:11:28;;;;;;;6.23;4.73;;;4.30;99.90;;;;;;5033027;28;20183;-59
2022/01/29 13:13:55;;;;;;;8.60;4.80;;;4.30;99.90;;;;;;5032503;28;20187;-58
2022/01/29 13:16:21;;;;;;;7.00;4.90;;;4.50;99.90;;;;;;5032604;28;20176;-59
2022/01/29 13:18:47;;;;;;;6.23;4.50;;;4.50;99.90;;;;;;5032297;28;20267;-58
2022/01/29 13:21:13;;;;;;;7.00;4.40;;;4.40;99.90;;;;;;5032820;28;20168;-59
2022/01/29 13:23:41;;;;;;;7.43;4.80;;;4.30;99.90;;;;;;5032416;28;20220;-59